Time;durP1;ratioP1;P1;durP2;ratioP2;P2;SDS_P1;SDS_P2;PMS_P1;PMS_P2;Temp;Humidity;BMP_temperature;BMP_pressure;BME280_temperature;BME280_humidity;BME280_pressure;Samples;Min_cycle;Max_cycle;Signal;HPM_P1;HPM_P2
2023/07/11 00:00:20;;;;;;;5.40;2.83;;;;;;;17.02;100.00;100932.66;689605;28;916;-62
2023/07/11 00:00:40;;;;;;;4.72;2.65;;;;;;;17.01;100.00;100930.91;689675;28;1003;-62
2023/07/11 00:01:01;;;;;;;5.35;2.65;;;;;;;17.02;100.00;100941.44;689031;28;1615;-62
2023/07/11 00:01:21;;;;;;;4.27;2.40;;;;;;;17.02;100.00;100930.88;689510;28;1396;-62
2023/07/11 00:01:42;;;;;;;4.43;2.50;;;;;;;17.04;100.00;100936.09;690256;28;939;-62
2023/07/11 00:02:03;;;;;;;3.87;2.43;;;;;;;17.05;100.00;100929.91;688946;28;1590;-61
2023/07/11 00:02:23;;;;;;;5.40;2.60;;;;;;;17.06;100.00;100933.41;688772;28;4528;-60
2023/07/11 00:02:45;;;;;;;5.00;2.83;;;;;;;17.06;100.00;100936.06;686355;28;1560;-61
2023/07/11 00:03:06;;;;;;;4.53;2.42;;;;;;;17.05;100.00;100934.34;686801;28;1393;-63
2023/07/11 00:03:26;;;;;;;4.37;2.60;;;;;;;17.06;100.00;100936.94;686416;28;885;-62
2023/07/11 00:03:47;;;;;;;5.40;2.50;;;;;;;17.07;100.00;100936.03;685963;28;1510;-62
2023/07/11 00:04:07;;;;;;;4.65;2.38;;;;;;;17.07;100.00;100933.41;687265;28;963;-60
2023/07/11 00:04:27;;;;;;;4.63;2.33;;;;;;;17.05;100.00;100934.34;689974;28;1306;-61
2023/07/11 00:04:48;;;;;;;5.23;2.50;;;;;;;17.05;100.00;100934.34;691577;28;1757;-61
2023/07/11 00:05:08;;;;;;;4.53;2.50;;;;;;;17.04;100.00;100927.31;690040;28;1206;-61
2023/07/11 00:05:29;;;;;;;4.70;2.60;;;;;;;17.01;100.00;100929.13;688551;28;4379;-61
2023/07/11 00:06:01;;;;;;;5.50;2.60;;;;;;;17.00;100.00;100935.34;688778;28;1563;-62
2023/07/11 00:06:21;;;;;;;4.57;2.40;;;;;;;16.98;100.00;100925.72;689854;28;1436;-62
2023/07/11 00:06:41;;;;;;;4.83;2.40;;;;;;;16.99;100.00;100935.38;689807;28;955;-62
2023/07/11 00:07:02;;;;;;;5.10;2.37;;;;;;;16.98;100.00;100929.22;688719;28;1606;-62
2023/07/11 00:07:22;;;;;;;5.68;2.50;;;;;;;16.99;100.00;100936.22;689984;28;1007;-61
2023/07/11 00:07:44;;;;;;;3.97;2.20;;;;;;;17.00;100.00;100930.06;689314;28;1115;-61
2023/07/11 00:08:05;;;;;;;4.40;2.38;;;;;;;17.02;100.00;100930.00;688880;28;810;-62
2023/07/11 00:08:26;;;;;;;4.80;2.40;;;;;;;17.03;100.00;100934.38;688942;28;4527;-61
2023/07/11 00:08:46;;;;;;;4.50;2.50;;;;;;;17.02;100.00;100930.00;688646;28;1526;-61
2023/07/11 00:09:06;;;;;;;4.37;2.40;;;;;;;17.05;100.00;100929.06;688933;28;1294;-61
2023/07/11 00:09:27;;;;;;;4.35;2.30;;;;;;;17.06;100.00;100930.78;690070;28;1046;-61
2023/07/11 00:09:48;;;;;;;4.40;2.50;;;;;;;17.07;100.00;100924.59;688372;28;1491;-62
2023/07/11 00:10:13;;;;;;;4.10;2.30;;;;;;;17.08;100.00;100928.97;689352;28;1126;-61
2023/07/11 00:10:33;;;;;;;4.53;2.45;;;;;;;17.09;100.00;100926.28;690065;28;1319;-61
2023/07/11 00:10:54;;;;;;;5.53;2.53;;;;;;;17.10;100.00;100928.03;688766;28;1098;-62
2023/07/11 00:11:17;;;;;;;5.30;2.30;;;;;;;17.11;100.00;100928.88;689477;28;2049;-61
2023/07/11 00:11:37;;;;;;;4.80;2.50;;;;;;;17.12;100.00;100927.97;689557;28;4689;-62
2023/07/11 00:11:58;;;;;;;4.70;2.70;;;;;;;17.10;100.00;100928.03;687352;28;1452;-62
2023/07/11 00:12:19;;;;;;;4.17;2.50;;;;;;;17.07;100.00;100932.50;689781;28;916;-62
2023/07/11 00:12:39;;;;;;;3.85;2.30;;;;;;;17.05;100.00;100926.41;689789;28;1392;-61
2023/07/11 00:13:00;;;;;;;5.63;2.50;;;;;;;17.05;100.00;100929.91;688927;28;1650;-61
2023/07/11 00:13:21;;;;;;;5.03;2.67;;;;;;;17.04;100.00;100919.41;690014;28;1918;-61
2023/07/11 00:13:41;;;;;;;4.93;2.50;;;;;;;17.03;100.00;100926.47;690137;28;887;-62
2023/07/11 00:14:02;;;;;;;4.60;2.40;;;;;;;17.04;100.00;100928.16;688603;28;1566;-62
2023/07/11 00:14:22;;;;;;;5.80;2.60;;;;;;;17.05;100.00;100923.78;689233;28;4348;-61
2023/07/11 00:14:44;;;;;;;4.50;2.42;;;;;;;17.04;100.00;100927.31;689374;28;1357;-61
2023/07/11 00:15:06;;;;;;;4.82;2.45;;;;;;;17.04;100.00;100928.16;687742;28;1099;-61
2023/07/11 00:15:26;;;;;;;4.10;2.47;;;;;;;17.04;100.00;100924.69;689056;28;750;-61
2023/07/11 00:16:04;;;;;;;4.13;2.40;;;;;;;17.04;100.00;100925.53;684807;28;1473;-61
2023/07/11 00:16:25;;;;;;;4.00;2.40;;;;;;;17.06;100.00;100936.06;686414;28;1414;-61
2023/07/11 00:16:45;;;;;;;5.15;2.40;;;;;;;17.07;100.00;100932.50;687850;28;1741;-61
2023/07/11 00:17:06;;;;;;;4.30;2.20;;;;;;;17.05;100.00;100927.28;686552;28;865;-62
2023/07/11 00:17:26;;;;;;;4.00;2.25;;;;;;;17.02;100.00;100920.28;686910;28;4532;-61
2023/07/11 00:17:48;;;;;;;4.30;2.50;;;;;;;17.01;100.00;100926.47;688460;28;1650;-62
2023/07/11 00:18:08;;;;;;;4.32;2.50;;;;;;;17.00;100.00;100927.41;689466;28;952;-62
2023/07/11 00:18:29;;;;;;;4.73;2.20;;;;;;;17.00;100.00;100919.50;689727;28;978;-63
2023/07/11 00:18:49;;;;;;;5.23;2.30;;;;;;;17.00;100.00;100922.13;688885;28;1443;-62
2023/07/11 00:19:10;;;;;;;4.33;2.60;;;;;;;17.01;100.00;100925.63;689637;28;1152;-62
2023/07/11 00:19:46;;;;;;;3.92;2.40;;;;;;;17.00;100.00;100922.13;690486;28;905;-63
2023/07/11 00:20:08;;;;;;;4.88;2.67;;;;;;;16.99;100.00;100923.03;689462;28;881;-62
2023/07/11 00:20:28;;;;;;;4.43;2.03;;;;;;;17.00;100.00;100916.84;689317;28;4471;-61
2023/07/11 00:20:49;;;;;;;3.70;2.20;;;;;;;17.00;100.00;100919.50;688483;28;1515;-62
2023/07/11 00:21:09;;;;;;;3.70;2.25;;;;;;;17.00;100.00;100921.25;690052;28;912;-61
2023/07/11 00:21:29;;;;;;;4.57;2.37;;;;;;;17.00;100.00;100919.50;689775;28;947;-62
2023/07/11 00:21:50;;;;;;;4.97;2.40;;;;;;;17.01;100.00;100915.06;688161;28;1170;-62
2023/07/11 00:22:10;;;;;;;4.65;2.40;;;;;;;17.02;100.00;100922.94;689298;28;1481;-62
2023/07/11 00:22:31;;;;;;;4.60;2.80;;;;;;;16.99;100.00;100923.03;689324;28;1113;-62
2023/07/11 00:22:51;;;;;;;4.15;2.63;;;;;;;16.98;100.00;100921.28;688507;28;1515;-62
2023/07/11 00:23:12;;;;;;;4.50;2.40;;;;;;;16.96;100.00;100915.19;689934;28;1245;-61
2023/07/11 00:23:32;;;;;;;3.75;2.30;;;;;;;16.95;100.00;100913.47;686504;28;4349;-62
2023/07/11 00:23:52;;;;;;;3.90;2.30;;;;;;;16.97;100.00;100921.34;688734;28;1562;-62
2023/07/11 00:24:13;;;;;;;4.57;2.40;;;;;;;16.96;100.00;100920.47;689718;28;1058;-61
2023/07/11 00:24:33;;;;;;;5.17;2.30;;;;;;;16.92;100.00;100923.22;687166;28;818;-62
2023/07/11 00:24:54;;;;;;;4.03;2.30;;;;;;;16.92;100.00;100924.13;685667;28;1633;-62
2023/07/11 00:25:14;;;;;;;4.77;2.50;;;;;;;16.92;100.00;100921.47;687187;28;1248;-61
2023/07/11 00:25:35;;;;;;;4.37;2.20;;;;;;;16.93;100.00;100925.81;689427;28;1369;-62
2023/07/11 00:25:56;;;;;;;4.00;2.30;;;;;;;16.95;100.00;100924.03;688665;28;1469;-62
2023/07/11 00:26:16;;;;;;;4.57;2.40;;;;;;;16.95;100.00;100923.16;689636;28;4555;-61
2023/07/11 00:26:37;;;;;;;4.35;2.33;;;;;;;16.95;100.00;100923.16;689153;28;1214;-61
2023/07/11 00:26:57;;;;;;;4.30;2.27;;;;;;;16.96;100.00;100924.88;685879;28;1445;-62
2023/07/11 00:27:19;;;;;;;4.00;2.22;;;;;;;16.95;100.00;100926.66;687091;28;940;-62
2023/07/11 00:27:40;;;;;;;4.00;2.40;;;;;;;16.94;100.00;100922.28;683826;28;1445;-62
2023/07/11 00:28:00;;;;;;;5.10;2.40;;;;;;;16.95;100.00;100923.16;683359;28;1348;-62
2023/07/11 00:28:21;;;;;;;5.78;2.40;;;;;;;16.95;100.00;100924.03;684861;28;845;-61
2023/07/11 00:28:41;;;;;;;5.30;2.30;;;;;;;16.94;100.00;100922.28;686927;28;1036;-61
2023/07/11 00:29:22;;;;;;;5.00;2.90;;;;;;;16.94;100.00;100924.06;685673;28;1462;-62
2023/07/11 00:29:43;;;;;;;5.35;2.58;;;;;;;16.91;100.00;100924.16;686953;28;4843;-63
2023/07/11 00:30:06;;;;;;;4.43;2.35;;;;;;;16.89;100.00;100924.19;687760;28;1523;-62
2023/07/11 00:30:26;;;;;;;5.63;2.70;;;;;;;16.89;100.00;100924.19;690198;28;936;-61
2023/07/11 00:30:47;;;;;;;5.90;2.80;;;;;;;16.88;100.00;100919.78;687987;28;1584;-62
2023/07/11 00:31:08;;;;;;;3.90;2.30;;;;;;;16.88;100.00;100918.91;688985;28;1097;-61
2023/07/11 00:31:30;;;;;;;4.20;2.40;;;;;;;16.89;100.00;100921.56;690143;28;1440;-62
2023/07/11 00:31:50;;;;;;;3.75;2.40;;;;;;;16.89;100.00;100918.91;687628;28;1526;-62
2023/07/11 00:32:11;;;;;;;3.57;2.40;;;;;;;16.90;100.00;100914.50;689644;28;809;-61
2023/07/11 00:32:33;;;;;;;5.03;2.50;;;;;;;16.91;100.00;100916.22;689436;28;4343;-61
2023/07/11 00:32:54;;;;;;;5.47;2.47;;;;;;;16.89;100.00;100916.28;688410;28;1513;-61
2023/07/11 00:33:15;;;;;;;5.47;2.40;;;;;;;16.87;100.00;100920.69;689625;28;1930;-62
2023/07/11 00:33:36;;;;;;;6.05;2.88;;;;;;;16.86;100.00;100916.31;689373;28;1528;-62
2023/07/11 00:33:56;;;;;;;5.03;2.70;;;;;;;16.86;100.00;100921.59;685235;28;1591;-61
2023/07/11 00:34:16;;;;;;;4.70;2.50;;;;;;;16.87;100.00;100920.69;683894;28;1146;-61
2023/07/11 00:34:37;;;;;;;4.70;2.83;;;;;;;16.87;100.00;100925.97;683385;28;1126;-61
2023/07/11 00:34:57;;;;;;;4.75;2.55;;;;;;;16.86;100.00;100916.31;679232;28;1535;-62
2023/07/11 00:35:20;;;;;;;4.20;2.40;;;;;;;16.86;100.00;100924.22;681085;28;4322;-61
2023/07/11 00:35:44;;;;;;;5.45;2.50;;;;;;;16.86;100.00;100924.22;682338;28;1031;-62
2023/07/11 00:36:05;;;;;;;4.78;2.55;;;;;;;16.86;100.00;100924.22;684795;28;1067;-62
2023/07/11 00:36:27;;;;;;;3.90;2.15;;;;;;;16.85;100.00;100922.50;686080;28;1491;-61
2023/07/11 00:36:48;;;;;;;4.07;2.28;;;;;;;16.85;100.00;100912.81;684553;28;1501;-62
2023/07/11 00:37:08;;;;;;;4.33;2.43;;;;;;;16.88;100.00;100926.81;684923;28;1129;-61
2023/07/11 00:37:29;;;;;;;4.65;2.30;;;;;;;16.85;100.00;100917.22;684318;28;1395;-62
2023/07/11 00:37:51;;;;;;;4.10;2.40;;;;;;;16.80;100.00;100916.47;679220;28;1467;-62
2023/07/11 00:38:12;;;;;;;3.80;2.30;;;;;;;16.78;100.00;100916.53;681244;29;1264;-62
2023/07/11 00:38:33;;;;;;;4.28;2.35;;;;;;;16.74;100.00;100922.78;681823;28;4597;-61
2023/07/11 00:38:53;;;;;;;4.70;2.60;;;;;;;16.75;100.00;100919.22;683554;28;1672;-62
2023/07/11 00:39:16;;;;;;;4.30;2.47;;;;;;;16.75;100.00;100916.59;684092;28;907;-61
2023/07/11 00:39:37;;;;;;;5.22;2.50;;;;;;;16.75;100.00;100918.38;685975;28;2488;-61
2023/07/11 00:39:58;;;;;;;4.93;2.40;;;;;;;16.74;100.00;100914.88;685008;28;1560;-61
2023/07/11 00:40:18;;;;;;;4.93;2.33;;;;;;;16.73;100.00;100918.41;685808;28;881;-61
2023/07/11 00:40:41;;;;;;;4.50;2.58;;;;;;;16.74;100.00;100914.88;684963;28;909;-61
2023/07/11 00:41:01;;;;;;;4.82;2.53;;;;;;;16.75;100.00;100918.38;684630;28;3323;-61
2023/07/11 00:41:22;;;;;;;5.18;2.38;;;;;;;16.71;100.00;100914.94;687172;28;4656;-61
2023/07/11 00:41:42;;;;;;;5.90;2.30;;;;;;;16.72;100.00;100919.31;686320;28;1121;-61
2023/07/11 00:42:05;;;;;;;5.00;2.38;;;;;;;16.72;100.00;100911.41;684031;28;1474;-61
2023/07/11 00:42:25;;;;;;;4.70;2.50;;;;;;;16.72;100.00;100915.81;684376;28;1378;-61
2023/07/11 00:42:50;;;;;;;4.00;2.30;;;;;;;16.71;100.00;100916.72;682376;28;1652;-62
2023/07/11 00:43:14;;;;;;;6.03;2.35;;;;;;;16.71;100.00;100916.72;680496;28;2352;-61
2023/07/11 00:43:35;;;;;;;4.63;2.40;;;;;;;16.72;100.00;100913.19;680372;29;866;-61
2023/07/11 00:43:55;;;;;;;4.77;2.40;;;;;;;16.72;100.00;100911.41;681520;28;1601;-62
2023/07/11 00:44:16;;;;;;;4.55;2.30;;;;;;;16.73;100.00;100912.28;683577;28;810;-61
2023/07/11 00:45:08;;;;;;;4.80;2.22;;;;;;;16.72;100.00;100910.53;683689;28;4809;-61
2023/07/11 00:45:50;;;;;;;4.45;2.60;;;;;;;16.71;100.00;100908.78;676921;29;1400;-61
2023/07/11 00:46:15;;;;;;;4.70;2.53;;;;;;;16.69;100.00;100908.84;676882;29;1466;-62
2023/07/11 00:46:35;;;;;;;4.53;2.40;;;;;;;16.68;100.00;100907.09;684666;28;1175;-61
2023/07/11 00:46:55;;;;;;;4.07;2.38;;;;;;;16.65;100.00;100905.41;686198;28;1603;-62
2023/07/11 00:47:16;;;;;;;4.23;2.50;;;;;;;16.64;100.00;100910.72;687264;28;4482;-61
2023/07/11 00:47:36;;;;;;;3.97;2.40;;;;;;;16.64;100.00;100908.97;686451;28;857;-61
2023/07/11 00:47:57;;;;;;;3.70;2.30;;;;;;;16.62;100.00;100905.50;686254;28;1530;-62
2023/07/11 00:48:20;;;;;;;5.47;2.30;;;;;;;16.60;100.00;100917.88;689634;28;943;-61
2023/07/11 00:48:54;;;;;;;5.90;2.47;;;;;;;16.59;100.00;100900.31;686822;28;1223;-61
2023/07/11 00:49:18;;;;;;;4.57;2.40;;;;;;;16.59;100.00;100908.22;687063;28;1146;-61
2023/07/11 00:49:38;;;;;;;5.38;2.50;;;;;;;16.59;100.00;100905.56;681797;28;2111;-61
2023/07/11 00:50:05;;;;;;;5.00;2.40;;;;;;;16.62;100.00;100910.78;681160;28;1558;-62
2023/07/11 00:50:26;;;;;;;4.38;2.30;;;;;;;16.61;100.00;100906.38;683792;28;4280;-61
2023/07/11 00:50:47;;;;;;;3.80;2.25;;;;;;;16.60;100.00;100909.06;680133;28;1569;-62
2023/07/11 00:51:10;;;;;;;4.25;2.50;;;;;;;16.59;100.00;100905.56;681654;28;1336;-61
2023/07/11 00:51:35;;;;;;;4.70;2.50;;;;;;;16.60;100.00;100907.31;684943;28;1059;-61
2023/07/11 00:51:59;;;;;;;4.35;2.40;;;;;;;16.62;100.00;100910.78;687430;28;1475;-62
2023/07/11 00:52:20;;;;;;;4.40;2.40;;;;;;;16.60;100.00;100909.97;688368;28;5078;-62
2023/07/11 00:52:41;;;;;;;3.72;2.10;;;;;;;16.59;100.00;100905.56;686261;28;1407;-62
2023/07/11 00:53:02;;;;;;;4.70;2.28;;;;;;;16.57;100.00;100907.38;687252;28;1003;-62
2023/07/11 00:53:25;;;;;;;4.10;2.20;;;;;;;16.57;100.00;100907.38;688950;28;4395;-61
2023/07/11 00:53:46;;;;;;;4.95;3.05;;;;;;;16.56;100.00;100910.94;688546;28;1555;-62
2023/07/11 00:54:11;;;;;;;4.38;2.78;;;;;;;16.56;100.00;100905.66;688982;28;1534;-61
2023/07/11 00:54:35;;;;;;;4.60;2.40;;;;;;;16.55;100.00;100906.56;689668;28;896;-62
2023/07/11 00:55:03;;;;;;;4.18;2.42;;;;;;;16.55;100.00;100903.06;688586;28;1558;-62
2023/07/11 00:55:24;;;;;;;4.72;2.47;;;;;;;16.53;100.00;100905.72;686439;28;916;-61
2023/07/11 00:55:46;;;;;;;4.55;2.50;;;;;;;16.53;100.00;100911.00;685795;28;1490;-62
2023/07/11 00:56:10;;;;;;;4.95;2.53;;;;;;;16.54;100.00;100906.59;686329;28;1473;-62
2023/07/11 00:56:37;;;;;;;4.55;2.40;;;;;;;16.53;100.00;100916.28;684792;28;4338;-61
2023/07/11 00:57:00;;;;;;;4.63;2.40;;;;;;;16.53;100.00;100905.72;685058;28;1528;-62
2023/07/11 00:57:24;;;;;;;5.22;2.38;;;;;;;16.54;100.00;100904.81;688751;28;838;-61
2023/07/11 00:57:45;;;;;;;4.13;2.15;;;;;;;16.54;100.00;100914.53;689015;28;1535;-62
2023/07/11 00:58:05;;;;;;;4.90;2.50;;;;;;;16.55;100.00;100903.94;688076;28;790;-62
2023/07/11 00:58:26;;;;;;;4.93;2.67;;;;;;;16.55;100.00;100903.94;689203;28;1116;-61
2023/07/11 00:58:48;;;;;;;4.13;2.40;;;;;;;16.54;100.00;100904.81;685921;28;1520;-61
2023/07/11 00:59:11;;;;;;;5.22;2.50;;;;;;;16.52;100.00;100904.00;686198;28;1377;-62
2023/07/11 00:59:32;;;;;;;5.65;2.70;;;;;;;16.49;100.00;100901.44;687587;28;4453;-61
2023/07/11 00:59:53;;;;;;;5.57;2.67;;;;;;;16.47;100.00;100903.25;686139;28;1629;-62
2023/07/11 01:00:13;;;;;;;5.63;2.90;;;;;;;16.48;100.00;100894.44;686048;28;893;-62
2023/07/11 01:00:34;;;;;;;4.53;2.80;;;;;;;16.49;100.00;100901.44;687126;28;936;-61
2023/07/11 01:00:58;;;;;;;5.15;2.75;;;;;;;16.46;100.00;100904.16;688063;28;1476;-62
2023/07/11 01:01:20;;;;;;;4.90;2.50;;;;;;;16.44;100.00;100909.47;686786;28;2045;-62
2023/07/11 01:01:42;;;;;;;4.15;2.55;;;;;;;16.43;100.00;100898.97;686456;28;1935;-62
2023/07/11 01:02:12;;;;;;;4.65;2.47;;;;;;;16.42;100.00;100905.13;683478;28;1523;-62
2023/07/11 01:02:34;;;;;;;4.07;2.65;;;;;;;16.43;100.00;100905.09;683163;28;4709;-61
2023/07/11 01:02:54;;;;;;;5.70;2.92;;;;;;;16.42;100.00;100902.50;683282;28;1540;-61
2023/07/11 01:03:14;;;;;;;5.40;2.60;;;;;;;16.42;100.00;100905.13;684343;28;1253;-61
2023/07/11 01:03:35;;;;;;;4.97;2.50;;;;;;;16.39;100.00;100902.56;685283;28;1201;-62
2023/07/11 01:03:55;;;;;;;4.85;2.50;;;;;;;16.38;100.00;100900.84;685358;28;1468;-62
2023/07/11 01:04:19;;;;;;;4.27;2.40;;;;;;;16.34;100.00;100900.06;684114;28;1136;-61
2023/07/11 01:04:40;;;;;;;4.65;2.50;;;;;;;16.34;100.00;100894.78;686142;28;976;-61
2023/07/11 01:05:03;;;;;;;5.32;2.53;;;;;;;16.37;100.00;100899.13;686996;28;1611;-62
2023/07/11 01:05:24;;;;;;;4.60;2.60;;;;;;;16.36;100.00;100898.25;686078;28;4314;-61
2023/07/11 01:05:44;;;;;;;4.50;2.50;;;;;;;16.37;100.00;100896.50;686902;28;1310;-61
2023/07/11 01:06:10;;;;;;;4.63;2.60;;;;;;;16.38;100.00;100896.44;687170;28;1523;-62
2023/07/11 01:06:32;;;;;;;4.93;2.60;;;;;;;16.33;100.00;100893.91;688753;28;850;-61
2023/07/11 01:06:52;;;;;;;4.40;2.40;;;;;;;16.31;100.00;100897.47;685576;28;1536;-62
2023/07/11 01:07:17;;;;;;;5.35;2.63;;;;;;;16.29;100.00;100892.25;686642;28;1294;-62
2023/07/11 01:07:38;;;;;;;4.88;2.58;;;;;;;16.27;100.00;100896.72;686495;28;1985;-61
2023/07/11 01:07:58;;;;;;;4.37;2.40;;;;;;;16.27;100.00;100894.06;686783;28;1477;-61
2023/07/11 01:08:18;;;;;;;4.97;2.47;;;;;;;16.28;100.00;100894.94;687157;28;4410;-61
2023/07/11 01:08:40;;;;;;;5.78;2.60;;;;;;;16.28;100.00;100895.81;686069;28;1261;-62
2023/07/11 01:09:04;;;;;;;5.97;2.55;;;;;;;16.28;100.00;100901.09;686875;28;1234;-61
2023/07/11 01:09:28;;;;;;;3.90;2.60;;;;;;;16.28;100.00;100897.56;686926;28;904;-61
2023/07/11 01:09:49;;;;;;;4.63;2.67;;;;;;;16.25;100.00;100889.72;684854;28;1572;-62
2023/07/11 01:10:10;;;;;;;5.10;2.58;;;;;;;16.26;100.00;100894.97;684296;28;1343;-61
2023/07/11 01:10:30;;;;;;;4.60;2.58;;;;;;;16.27;100.00;100891.44;683612;28;1414;-62
2023/07/11 01:10:51;;;;;;;4.60;2.55;;;;;;;16.28;100.00;100892.28;683607;28;1473;-61
2023/07/11 01:11:12;;;;;;;5.20;2.70;;;;;;;16.27;100.00;100888.78;686821;28;1466;-62
2023/07/11 01:11:54;;;;;;;5.32;2.63;;;;;;;16.23;100.00;100887.13;686650;28;4592;-61
2023/07/11 01:12:16;;;;;;;4.97;2.50;;;;;;;16.22;100.00;100890.66;688983;28;1704;-62
2023/07/11 01:12:44;;;;;;;5.03;2.80;;;;;;;16.23;100.00;100891.56;687412;28;1248;-61
2023/07/11 01:13:06;;;;;;;4.60;2.65;;;;;;;16.25;100.00;100890.59;686198;28;1475;-62
2023/07/11 01:13:26;;;;;;;4.35;2.50;;;;;;;16.25;100.00;100887.09;685502;28;1919;-61
2023/07/11 01:13:47;;;;;;;4.77;2.50;;;;;;;16.26;100.00;100886.19;682581;28;1712;-62
2023/07/11 01:14:07;;;;;;;4.25;2.60;;;;;;;16.28;100.00;100889.66;682811;28;846;-61
2023/07/11 01:14:28;;;;;;;4.40;2.77;;;;;;;16.27;100.00;100888.78;682813;28;4362;-61
2023/07/11 01:14:50;;;;;;;5.10;2.83;;;;;;;16.27;100.00;100891.44;684314;28;956;-61
2023/07/11 01:15:11;;;;;;;4.80;2.80;;;;;;;16.25;100.00;100884.47;686461;28;1997;-62
2023/07/11 01:15:31;;;;;;;5.60;2.83;;;;;;;16.24;100.00;100886.25;686339;28;992;-62
2023/07/11 01:15:52;;;;;;;6.60;3.00;;;;;;;16.24;100.00;100886.25;688276;28;1654;-62
2023/07/11 01:16:12;;;;;;;5.10;2.97;;;;;;;16.25;100.00;100885.31;685692;28;1605;-62
2023/07/11 01:16:33;;;;;;;4.70;2.60;;;;;;;16.27;100.00;100891.44;685530;28;1277;-61
2023/07/11 01:16:53;;;;;;;4.25;2.45;;;;;;;16.26;100.00;100883.56;685233;28;1603;-61
2023/07/11 01:17:26;;;;;;;5.82;2.63;;;;;;;16.25;100.00;100884.47;686073;28;1728;-64
2023/07/11 01:17:47;;;;;;;4.97;2.60;;;;;;;16.24;100.00;100888.00;684821;28;4907;-62
2023/07/11 01:18:10;;;;;;;4.00;2.53;;;;;;;16.24;100.00;100888.88;686328;28;1280;-61
2023/07/11 01:18:31;;;;;;;3.47;2.40;;;;;;;16.23;100.00;100881.88;685886;28;828;-62
2023/07/11 01:18:51;;;;;;;4.20;2.50;;;;;;;16.25;100.00;100887.09;685063;28;1572;-62
2023/07/11 01:19:12;;;;;;;4.80;2.50;;;;;;;16.26;100.00;100883.56;685646;28;897;-62
2023/07/11 01:19:32;;;;;;;5.07;2.60;;;;;;;16.25;100.00;100885.31;685686;28;781;-62
2023/07/11 01:19:54;;;;;;;5.05;2.60;;;;;;;16.25;100.00;100884.47;685758;28;1497;-62
2023/07/11 01:20:14;;;;;;;4.78;2.58;;;;;;;16.25;100.00;100885.31;687445;28;1368;-61
2023/07/11 01:20:35;;;;;;;4.45;2.95;;;;;;;16.25;100.00;100881.81;685326;28;4495;-62
2023/07/11 01:20:57;;;;;;;3.47;2.50;;;;;;;16.22;100.00;100882.75;681447;28;1610;-62
2023/07/11 01:21:19;;;;;;;3.47;2.42;;;;;;;16.22;100.00;100880.13;683973;28;1303;-61
2023/07/11 01:21:39;;;;;;;3.83;2.40;;;;;;;16.22;100.00;100882.75;683287;28;801;-61
2023/07/11 01:22:00;;;;;;;4.30;2.50;;;;;;;16.21;100.00;100886.28;683863;28;1168;-62
2023/07/11 01:22:21;;;;;;;4.23;2.50;;;;;;;16.22;100.00;100887.19;687081;28;1066;-62
2023/07/11 01:22:41;;;;;;;4.20;2.50;;;;;;;16.22;100.00;100879.25;690413;28;877;-62
2023/07/11 01:23:02;;;;;;;4.50;2.50;;;;;;;16.21;100.00;100891.56;691185;28;1761;-62
2023/07/11 01:23:23;;;;;;;5.00;2.60;;;;;;;16.22;100.00;100884.53;691765;28;4544;-61
2023/07/11 01:23:44;;;;;;;4.55;2.50;;;;;;;16.21;100.00;100885.44;691657;28;1400;-61
2023/07/11 01:24:04;;;;;;;4.07;2.70;;;;;;;16.21;100.00;100888.94;687766;28;1841;-62
2023/07/11 01:24:25;;;;;;;4.85;2.70;;;;;;;16.20;100.00;100887.22;689456;28;1672;-62
2023/07/11 01:24:46;;;;;;;4.50;2.60;;;;;;;16.21;100.00;100888.06;688445;28;1575;-62
2023/07/11 01:25:10;;;;;;;4.03;2.47;;;;;;;16.21;100.00;100882.81;689568;28;1487;-61
2023/07/11 01:25:32;;;;;;;4.45;2.50;;;;;;;16.20;100.00;100889.84;689446;28;892;-62
2023/07/11 01:26:04;;;;;;;4.70;2.70;;;;;;;16.20;100.00;100888.97;688697;28;1559;-62
2023/07/11 01:26:25;;;;;;;6.13;2.60;;;;;;;16.20;100.00;100881.94;688329;28;4512;-61
2023/07/11 01:26:45;;;;;;;3.85;2.40;;;;;;;16.20;100.00;100896.88;689024;28;1397;-61
2023/07/11 01:27:06;;;;;;;4.93;2.53;;;;;;;16.17;100.00;100882.88;689271;28;1077;-61
2023/07/11 01:27:27;;;;;;;4.80;2.70;;;;;;;16.15;100.00;100882.03;686396;28;1405;-61
2023/07/11 01:27:51;;;;;;;4.90;2.72;;;;;;;16.17;100.00;100879.34;685313;28;1214;-63
2023/07/11 01:28:13;;;;;;;4.38;2.60;;;;;;;16.16;100.00;100882.94;684372;28;1437;-62
2023/07/11 01:28:33;;;;;;;4.30;2.58;;;;;;;16.13;100.00;100883.88;681693;28;1280;-62
2023/07/11 01:28:54;;;;;;;4.30;2.50;;;;;;;16.10;100.00;100877.78;680723;28;1827;-62
2023/07/11 01:29:14;;;;;;;5.28;2.60;;;;;;;16.09;100.00;100878.69;682983;28;1098;-62
2023/07/11 01:29:35;;;;;;;5.53;3.00;;;;;;;16.07;100.00;100880.50;682881;28;4321;-62
2023/07/11 01:29:55;;;;;;;5.35;3.15;;;;;;;16.07;100.00;100884.00;684361;28;1509;-62
2023/07/11 01:30:19;;;;;;;5.37;2.93;;;;;;;16.08;100.00;100879.59;688519;28;940;-63
2023/07/11 01:30:39;;;;;;;4.95;2.80;;;;;;;16.11;100.00;100890.06;686973;28;1547;-62
2023/07/11 01:31:00;;;;;;;4.07;2.33;;;;;;;16.10;100.00;100880.41;688530;28;951;-62
2023/07/11 01:31:20;;;;;;;4.10;2.40;;;;;;;16.10;100.00;100875.16;689619;28;1031;-62
2023/07/11 01:31:40;;;;;;;4.30;2.50;;;;;;;16.09;100.00;100879.56;689741;28;865;-62
2023/07/11 01:32:01;;;;;;;4.75;2.80;;;;;;;16.08;100.00;100879.59;688319;28;1356;-62
2023/07/11 01:32:21;;;;;;;5.23;2.77;;;;;;;16.06;100.00;100878.75;686385;28;4452;-62
2023/07/11 01:32:42;;;;;;;4.18;2.58;;;;;;;16.06;100.00;100873.47;689310;28;805;-62
2023/07/11 01:33:02;;;;;;;4.60;2.80;;;;;;;16.06;100.00;100884.03;688681;28;1643;-62
2023/07/11 01:33:25;;;;;;;4.68;2.65;;;;;;;16.05;100.00;100882.28;686976;28;1976;-62
2023/07/11 01:33:45;;;;;;;5.07;2.63;;;;;;;16.05;100.00;100877.91;686742;28;1487;-62
2023/07/11 01:34:07;;;;;;;5.38;2.70;;;;;;;16.06;100.00;100881.41;681172;28;1542;-62
2023/07/11 01:34:27;;;;;;;5.00;2.60;;;;;;;16.06;100.00;100877.00;684499;28;980;-63
2023/07/11 01:34:48;;;;;;;5.15;2.50;;;;;;;16.07;100.00;100875.22;683221;28;1470;-62
2023/07/11 01:35:08;;;;;;;5.63;2.50;;;;;;;16.07;100.00;100875.22;681540;28;1248;-62
2023/07/11 01:35:29;;;;;;;5.37;2.60;;;;;;;16.07;100.00;100880.50;680939;28;4550;-62
2023/07/11 01:35:50;;;;;;;5.40;2.55;;;;;;;16.07;100.00;100875.22;681138;28;2022;-62
2023/07/11 01:36:10;;;;;;;4.70;2.70;;;;;;;16.06;100.00;100874.38;685946;28;1439;-62
2023/07/11 01:36:32;;;;;;;4.47;2.60;;;;;;;16.08;100.00;100879.59;687124;28;873;-62
2023/07/11 01:36:52;;;;;;;5.20;2.60;;;;;;;16.07;100.00;100877.88;685680;28;1556;-62
2023/07/11 01:37:13;;;;;;;6.30;2.75;;;;;;;16.07;100.00;100869.94;684097;28;965;-62
2023/07/11 01:37:33;;;;;;;4.97;2.60;;;;;;;16.06;100.00;100876.13;686064;28;3520;-62
2023/07/11 01:37:54;;;;;;;5.50;2.85;;;;;;;16.06;100.00;100873.47;685615;28;1603;-63
2023/07/11 01:38:14;;;;;;;4.85;2.70;;;;;;;16.07;100.00;100875.22;686770;28;888;-62
2023/07/11 01:38:34;;;;;;;4.33;2.70;;;;;;;16.07;100.00;100872.59;686604;28;4574;-62
2023/07/11 01:38:57;;;;;;;4.87;2.70;;;;;;;16.05;100.00;100866.47;685568;28;1449;-62
2023/07/11 01:39:17;;;;;;;5.28;2.60;;;;;;;16.05;100.00;100871.75;686438;28;1315;-62
2023/07/11 01:39:38;;;;;;;5.10;2.53;;;;;;;16.04;100.00;100872.66;687192;28;869;-61
2023/07/11 01:39:59;;;;;;;5.40;2.60;;;;;;;16.05;100.00;100869.09;685551;28;1468;-62
2023/07/11 01:40:21;;;;;;;4.50;2.60;;;;;;;16.05;100.00;100871.75;687346;28;909;-62
2023/07/11 01:40:42;;;;;;;4.33;2.50;;;;;;;16.02;100.00;100866.56;689667;28;919;-62
2023/07/11 01:41:02;;;;;;;5.10;2.60;;;;;;;15.99;100.00;100868.38;686110;28;1606;-62
2023/07/11 01:41:24;;;;;;;4.40;2.93;;;;;;;16.01;100.00;100868.34;688688;28;4708;-62
2023/07/11 01:41:44;;;;;;;4.38;2.75;;;;;;;16.00;100.00;100867.47;686706;28;1346;-62
2023/07/11 01:42:05;;;;;;;4.70;2.40;;;;;;;16.00;100.00;100867.47;685863;28;1536;-62
2023/07/11 01:42:26;;;;;;;4.35;2.30;;;;;;;16.00;100.00;100866.59;686796;28;865;-62
2023/07/11 01:42:48;;;;;;;4.60;2.58;;;;;;;15.98;100.00;100864.00;686280;28;1534;-62
2023/07/11 01:43:09;;;;;;;5.68;3.13;;;;;;;15.98;100.00;100868.41;689704;28;948;-62